createdAt,value
2022-08-01T00:01:56.034Z,10.45
2022-08-01T00:18:41.378Z,10.82
2022-08-01T00:27:32.414Z,7.22
2022-08-01T00:30:35.048Z,7.40
2022-08-01T00:33:33.346Z,5.88
2022-08-01T00:36:00.498Z,6.30
2022-08-01T00:38:37.799Z,5.53
2022-08-01T00:41:11.836Z,5.63
2022-08-01T00:44:01.541Z,5.47
2022-08-01T00:46:46.373Z,5.50
2022-08-01T00:49:21.473Z,5.18
2022-08-01T00:51:54.354Z,5.03
2022-08-01T00:54:33.016Z,5.53
2022-08-01T00:57:15.041Z,5.88
2022-08-01T00:59:48.887Z,6.20
2022-08-01T01:02:18.487Z,5.38
2022-08-01T01:04:47.404Z,6.70
2022-08-01T01:07:23.755Z,6.00
2022-08-01T01:10:14.730Z,9.30
2022-08-01T01:12:56.044Z,5.47
2022-08-01T01:15:32.346Z,6.32
2022-08-01T01:18:14.811Z,3.58
2022-08-01T01:20:53.384Z,2.85
2022-08-01T01:23:41.320Z,3.67
2022-08-01T01:26:28.138Z,4.45
2022-08-01T01:29:26.765Z,5.18
2022-08-01T01:32:10.889Z,3.13
2022-08-01T01:34:41.734Z,3.55
2022-08-01T01:37:13.680Z,2.80
2022-08-01T01:39:45.270Z,4.82
2022-08-01T01:44:48.548Z,3.65
2022-08-01T01:47:19.160Z,3.85
2022-08-01T01:49:50.084Z,4.13
2022-08-01T01:52:18.178Z,5.53
2022-08-01T01:54:54.389Z,2.40
2022-08-01T01:57:34.968Z,4.93
2022-08-01T02:00:07.760Z,2.33
2022-08-01T02:02:37.118Z,3.15
2022-08-01T02:05:12.324Z,3.65
2022-08-01T02:07:40.820Z,1.52
2022-08-01T02:10:11.203Z,2.78
2022-08-01T02:12:42.073Z,6.47
2022-08-01T02:15:12.424Z,3.45
2022-08-01T02:17:44.528Z,4.50
2022-08-01T02:20:12.898Z,4.97
2022-08-01T02:22:44.750Z,4.68
2022-08-01T02:25:16.533Z,7.82
2022-08-01T02:27:46.887Z,3.63
2022-08-01T02:30:16.977Z,7.88
2022-08-01T02:32:48.528Z,6.50
2022-08-01T02:35:21.368Z,8.63
2022-08-01T02:37:49.654Z,10.13
2022-08-01T02:40:18.886Z,6.32
2022-08-01T02:42:50.288Z,8.05
2022-08-01T02:47:48.886Z,6.70
2022-08-01T02:50:18.333Z,6.97
2022-08-01T02:52:49.369Z,7.03
2022-08-01T02:55:17.933Z,10.25
2022-08-01T02:57:52.350Z,5.97
2022-08-01T03:00:26.772Z,9.40
2022-08-01T03:02:54.601Z,10.15
2022-08-01T03:05:24.146Z,12.88
2022-08-01T03:07:52.607Z,7.70
2022-08-01T03:10:21.696Z,7.85
2022-08-01T03:12:50.989Z,6.00
2022-08-01T03:15:18.980Z,9.73
2022-08-01T03:17:49.514Z,9.65
2022-08-01T03:20:20.609Z,7.27
2022-08-01T03:22:50.257Z,9.45
2022-08-01T03:25:21.101Z,8.45
2022-08-01T03:27:55.311Z,8.98
2022-08-01T03:30:25.173Z,13.43
2022-08-01T03:32:59.178Z,13.35
2022-08-01T03:35:35.706Z,8.55
2022-08-01T03:38:16.283Z,7.53
2022-08-01T03:40:50.406Z,8.35
2022-08-01T03:43:27.478Z,15.93
2022-08-01T03:45:55.097Z,9.73
2022-08-01T03:48:29.906Z,14.43
2022-08-01T03:51:00.237Z,12.38
2022-08-01T03:53:31.811Z,9.00
2022-08-01T03:56:03.111Z,15.18
2022-08-01T03:58:30.661Z,12.55
2022-08-01T04:01:01.162Z,13.02
2022-08-01T04:03:29.814Z,15.23
2022-08-01T04:05:56.628Z,17.00
2022-08-01T04:08:29.919Z,16.63
2022-08-01T04:10:57.055Z,18.30
2022-08-01T04:13:23.942Z,15.55
2022-08-01T04:15:50.624Z,16.83
2022-08-01T04:18:18.347Z,17.35
2022-08-01T04:20:48.866Z,12.10
2022-08-01T04:23:17.404Z,14.67
2022-08-01T04:25:49.239Z,12.85
2022-08-01T04:28:18.345Z,18.20
2022-08-01T04:30:48.889Z,19.27
2022-08-01T04:33:17.345Z,17.47
2022-08-01T04:36:01.477Z,25.40
2022-08-01T04:38:32.944Z,18.92
2022-08-01T04:41:01.028Z,15.35
2022-08-01T04:43:36.774Z,21.50
2022-08-01T04:46:04.292Z,16.98
2022-08-01T04:48:33.108Z,23.00
2022-08-01T04:51:01.670Z,18.90
2022-08-01T04:53:31.265Z,13.85
2022-08-01T04:55:58.294Z,18.20
2022-08-01T04:58:25.306Z,23.00
2022-08-01T05:00:52.081Z,19.92
2022-08-01T05:03:19.448Z,14.18
2022-08-01T05:05:46.136Z,19.52
2022-08-01T05:08:12.891Z,22.67
2022-08-01T05:10:40.983Z,13.77
2022-08-01T05:13:07.746Z,20.13
2022-08-01T05:15:36.030Z,15.18
2022-08-01T05:18:04.678Z,21.25
2022-08-01T05:20:31.442Z,17.42
2022-08-01T05:22:58.371Z,14.27
2022-08-01T05:25:55.975Z,17.25
2022-08-01T05:28:17.173Z,16.17
2022-08-01T05:30:46.044Z,17.27
2022-08-01T05:33:12.749Z,18.10
2022-08-01T05:35:48.135Z,16.88
2022-08-01T05:38:16.361Z,21.17
2022-08-01T05:40:43.253Z,22.10
2022-08-01T05:43:10.051Z,16.77
2022-08-01T05:45:38.448Z,17.75
2022-08-01T05:48:06.158Z,17.30
2022-08-01T05:50:33.923Z,16.33
2022-08-01T05:53:00.636Z,19.85
2022-08-01T05:55:28.716Z,19.52
2022-08-01T05:57:55.481Z,18.40
2022-08-01T06:00:22.508Z,23.17
2022-08-01T06:02:50.923Z,17.08
2022-08-01T06:05:19.236Z,15.20
2022-08-01T06:07:46.564Z,21.17
2022-08-01T06:10:16.225Z,19.55
2022-08-01T06:12:42.982Z,14.02
2022-08-01T06:15:12.224Z,22.10
2022-08-01T06:17:38.973Z,22.10
2022-08-01T06:20:11.850Z,18.08
2022-08-01T06:22:39.010Z,13.93
2022-08-01T06:25:09.193Z,15.57
2022-08-01T06:27:36.117Z,11.90
2022-08-01T06:30:02.966Z,15.60
2022-08-01T06:32:29.872Z,13.80
2022-08-01T06:38:40.550Z,13.68
2022-08-01T06:41:44.043Z,18.42
2022-08-01T06:44:35.869Z,22.00
2022-08-01T06:47:07.390Z,16.65
2022-08-01T06:52:52.203Z,23.20
2022-08-01T07:01:38.693Z,12.73
2022-08-01T07:04:38.020Z,19.38
2022-08-01T07:07:26.770Z,15.65
2022-08-01T07:10:13.963Z,16.40
2022-08-01T07:13:25.330Z,13.02
2022-08-01T07:16:22.560Z,14.55
2022-08-01T07:19:02.615Z,14.40
2022-08-01T07:22:01.453Z,14.25
2022-08-01T07:24:48.237Z,14.02
2022-08-01T07:33:48.528Z,12.60
2022-08-01T07:36:53.677Z,12.35
2022-08-01T07:39:48.318Z,10.55
2022-08-01T07:43:03.468Z,11.60
2022-08-01T07:52:04.438Z,14.02
2022-08-01T08:01:20.354Z,10.38
2022-08-01T08:03:56.710Z,11.25
2022-08-01T08:07:09.672Z,10.45
2022-08-01T08:09:45.972Z,10.27
2022-08-01T08:12:56.998Z,13.73
2022-08-01T08:15:41.953Z,6.22
2022-08-01T08:18:39.077Z,12.82
2022-08-01T08:21:29.595Z,10.97
2022-08-01T08:24:08.064Z,20.85
2022-08-01T08:35:54.162Z,8.63
2022-08-01T08:39:05.361Z,9.27
2022-08-01T08:42:10.340Z,11.43
2022-08-01T08:45:58.833Z,11.95
2022-08-01T08:48:01.737Z,6.88
2022-08-01T08:50:45.176Z,6.57
2022-08-01T08:53:35.476Z,7.22
2022-08-01T08:56:15.701Z,12.63
2022-08-01T08:58:57.991Z,8.05
2022-08-01T09:01:41.805Z,6.60
2022-08-01T09:04:36.272Z,9.52
2022-08-01T09:07:42.216Z,11.43
2022-08-01T09:10:34.051Z,10.30
2022-08-01T09:16:26.448Z,6.75
2022-08-01T09:19:39.666Z,6.07
2022-08-01T09:22:38.916Z,8.23
2022-08-01T09:34:36.659Z,6.03
2022-08-01T09:37:49.542Z,7.60
2022-08-01T09:40:52.499Z,8.00
2022-08-01T09:53:29.697Z,4.45
2022-08-01T10:02:42.117Z,7.43
2022-08-01T10:12:39.323Z,6.70
2022-08-01T10:15:55.301Z,8.85
2022-08-01T10:18:55.573Z,4.35
2022-08-01T10:35:14.833Z,7.38
2022-08-01T11:08:24.561Z,6.20
2022-08-01T11:24:55.165Z,4.43
2022-08-01T11:48:55.752Z,5.78
2022-08-01T12:01:52.845Z,5.32
2022-08-01T12:04:58.621Z,3.92
2022-08-01T12:08:51.783Z,4.15
2022-08-01T12:32:04.584Z,5.28
2022-08-01T12:38:35.795Z,6.85
2022-08-01T12:41:43.325Z,5.78
2022-08-01T12:51:17.833Z,2.22
2022-08-01T12:54:18.565Z,3.00
2022-08-01T12:57:04.940Z,3.28
2022-08-01T13:06:16.458Z,3.75
2022-08-01T13:09:55.203Z,5.32
2022-08-01T13:15:48.369Z,2.63
2022-08-01T13:21:52.640Z,3.28
2022-08-01T13:25:17.681Z,4.03
2022-08-01T13:32:27.702Z,4.85
2022-08-01T13:35:53.285Z,4.55
2022-08-01T13:38:59.846Z,4.22
2022-08-01T13:44:30.157Z,4.90
2022-08-01T13:46:58.197Z,3.20
2022-08-01T13:53:14.912Z,4.03
2022-08-01T14:20:24.630Z,5.78
2022-08-01T14:32:47.107Z,3.92
2022-08-01T14:48:58.577Z,2.42
2022-08-01T14:58:42.707Z,5.03
2022-08-01T15:01:40.624Z,4.63
2022-08-01T15:04:26.380Z,2.03
2022-08-01T15:13:40.450Z,1.65
2022-08-01T15:19:18.870Z,5.45
2022-08-01T15:22:18.561Z,3.10
2022-08-01T15:25:19.929Z,2.30
2022-08-01T15:36:31.228Z,3.92
2022-08-01T15:39:10.747Z,2.65
2022-08-01T15:42:28.430Z,3.63
2022-08-01T15:49:25.938Z,4.35
2022-08-01T15:58:40.250Z,4.00
2022-08-01T16:07:18.569Z,4.20
2022-08-01T16:10:22.415Z,4.60
2022-08-01T16:15:08.338Z,2.42
2022-08-01T16:20:13.035Z,4.30
2022-08-01T16:22:53.302Z,4.22
2022-08-01T16:28:37.456Z,2.65
2022-08-01T16:31:26.721Z,4.47
2022-08-01T16:34:56.350Z,4.32
2022-08-01T16:37:51.981Z,5.50
2022-08-01T16:44:10.709Z,6.50
2022-08-01T16:47:11.732Z,4.82
2022-08-01T16:56:04.117Z,5.70
2022-08-01T16:58:48.682Z,5.65
2022-08-01T17:04:34.511Z,6.35
2022-08-01T17:07:16.304Z,6.47
2022-08-01T17:13:37.879Z,4.30
2022-08-01T17:23:40.941Z,5.68
2022-08-01T17:26:50.281Z,5.28
2022-08-01T17:29:22.500Z,7.50
2022-08-01T17:32:14.618Z,7.75
2022-08-01T17:35:01.596Z,6.78
2022-08-01T17:37:57.619Z,8.38
2022-08-01T18:02:08.744Z,6.07
2022-08-01T18:07:22.270Z,4.80
2022-08-01T18:10:23.480Z,5.20
2022-08-01T18:13:29.978Z,4.70
2022-08-01T18:16:16.283Z,4.25
2022-08-01T18:19:10.074Z,4.78
2022-08-01T18:28:16.311Z,6.55
2022-08-01T18:30:35.329Z,7.25
2022-08-01T18:33:28.659Z,6.55
2022-08-01T18:36:31.624Z,6.35
2022-08-01T18:41:58.205Z,6.30
2022-08-01T18:44:48.738Z,6.85
2022-08-01T18:47:31.361Z,6.03
2022-08-01T18:50:26.234Z,5.22
2022-08-01T18:53:09.040Z,5.97
2022-08-01T18:55:57.462Z,4.15
2022-08-01T18:58:42.396Z,6.97
2022-08-01T19:01:27.327Z,7.35
2022-08-01T19:04:13.879Z,7.72
2022-08-01T19:18:34.037Z,7.38
2022-08-01T19:21:08.430Z,6.57
2022-08-01T19:23:42.200Z,8.35
2022-08-01T19:26:22.422Z,3.92
2022-08-01T19:28:59.810Z,8.60
2022-08-01T19:31:36.782Z,4.28
2022-08-01T19:34:13.963Z,7.95
2022-08-01T19:40:26.948Z,5.18
2022-08-01T19:43:12.683Z,4.32
2022-08-01T19:46:03.665Z,3.60
2022-08-01T19:48:51.480Z,6.15
2022-08-01T19:52:10.610Z,6.32
2022-08-01T19:54:47.186Z,5.45
2022-08-01T19:57:26.912Z,7.90
2022-08-01T20:00:39.211Z,6.28
2022-08-01T20:03:20.647Z,7.78
2022-08-01T20:08:42.756Z,7.43
2022-08-01T20:11:47.492Z,9.30
2022-08-01T20:14:27.116Z,8.50
2022-08-01T20:20:12.253Z,4.47
2022-08-01T20:23:01.303Z,7.78
2022-08-01T20:26:02.920Z,7.85
2022-08-01T20:35:51.124Z,8.13
2022-08-01T20:38:50.125Z,5.53
2022-08-01T20:41:45.989Z,5.43
2022-08-01T20:47:38.645Z,7.53
2022-08-01T20:50:26.975Z,5.47
2022-08-01T20:53:17.046Z,8.85
2022-08-01T20:56:10.912Z,5.65
2022-08-01T21:01:48.091Z,8.23
2022-08-01T21:04:47.172Z,6.20
2022-08-01T21:07:31.016Z,4.28
2022-08-01T21:13:41.816Z,7.63
2022-08-01T21:16:25.182Z,8.50
2022-08-01T21:19:19.597Z,7.45
2022-08-01T21:22:01.610Z,5.05
2022-08-01T21:24:38.403Z,5.63
2022-08-01T21:27:19.328Z,6.03
2022-08-01T21:29:56.123Z,8.55
2022-08-01T21:32:31.794Z,5.75
2022-08-01T21:35:16.671Z,6.80
2022-08-01T21:37:56.051Z,4.93
2022-08-01T21:40:35.600Z,8.85
2022-08-01T21:43:19.624Z,4.97
2022-08-01T21:46:01.193Z,4.53
2022-08-01T21:51:14.991Z,5.55
2022-08-01T21:53:50.348Z,7.97
2022-08-01T21:56:36.592Z,7.45
2022-08-01T21:59:20.984Z,7.28
2022-08-01T22:05:04.031Z,6.90
2022-08-01T22:07:39.324Z,5.22
2022-08-01T22:10:15.700Z,4.20
2022-08-01T22:12:48.572Z,7.30
2022-08-01T22:15:24.251Z,7.82
2022-08-01T22:18:12.900Z,4.57
2022-08-01T22:20:49.248Z,5.93
2022-08-01T22:23:36.666Z,6.47
2022-08-01T22:26:15.933Z,7.78
2022-08-01T22:28:53.934Z,8.43
2022-08-01T22:31:22.471Z,5.80
2022-08-01T22:33:53.263Z,7.82
2022-08-01T22:36:28.830Z,12.25
2022-08-01T22:38:59.346Z,4.15
2022-08-01T22:42:01.863Z,4.22
2022-08-01T22:44:32.509Z,11.68
2022-08-01T22:47:14.543Z,5.28
2022-08-01T22:50:03.769Z,7.00
2022-08-01T22:52:51.410Z,6.18
2022-08-01T22:55:25.045Z,6.60
2022-08-01T22:58:23.042Z,7.32
2022-08-01T23:01:20.943Z,5.20
2022-08-01T23:04:03.038Z,7.72
2022-08-01T23:06:43.920Z,7.13
2022-08-01T23:09:15.547Z,6.40
2022-08-01T23:11:46.303Z,10.07
2022-08-01T23:14:22.224Z,7.82
2022-08-01T23:16:53.324Z,7.78
2022-08-01T23:19:24.843Z,6.63
2022-08-01T23:22:05.676Z,5.82
2022-08-01T23:24:39.895Z,7.57
2022-08-01T23:27:55.798Z,9.15
2022-08-01T23:30:28.796Z,4.85
2022-08-01T23:32:56.401Z,7.18
2022-08-01T23:35:39.077Z,7.00
2022-08-01T23:38:11.684Z,4.50
2022-08-01T23:40:40.743Z,10.63
2022-08-01T23:43:16.131Z,4.80
2022-08-01T23:46:03.572Z,12.77
2022-08-01T23:48:40.658Z,7.20
2022-08-01T23:51:24.035Z,5.78
2022-08-01T23:54:01.196Z,5.63
2022-08-01T23:56:29.642Z,6.25
2022-08-01T23:59:06.081Z,5.70
